sensor_id;sensor_type;location;lat;lon;timestamp;pressure;altitude;pressure_sealevel;temperature;humidity
59417;BME280;45222;52.458;20.914;2024-01-10T00:03:22;102570.50;;;-9.77;71.93
59417;BME280;45222;52.458;20.914;2024-01-10T00:07:07;102571.46;;;-9.74;72.11
59417;BME280;45222;52.458;20.914;2024-01-10T00:10:52;102571.46;;;-9.74;72.33
59417;BME280;45222;52.458;20.914;2024-01-10T00:14:38;102572.58;;;-9.73;72.03
59417;BME280;45222;52.458;20.914;2024-01-10T00:18:24;102567.52;;;-9.73;71.94
59417;BME280;45222;52.458;20.914;2024-01-10T00:22:09;102558.44;;;-9.75;71.97
59417;BME280;45222;52.458;20.914;2024-01-10T00:25:54;102567.52;;;-9.78;72.24
59417;BME280;45222;52.458;20.914;2024-01-10T00:29:39;102564.98;;;-9.78;71.83
59417;BME280;45222;52.458;20.914;2024-01-10T00:33:25;102564.80;;;-9.78;71.86
59417;BME280;45222;52.458;20.914;2024-01-10T00:37:10;102565.19;;;-9.77;72.13
59417;BME280;45222;52.458;20.914;2024-01-10T00:40:55;102570.09;;;-9.76;72.25
59417;BME280;45222;52.458;20.914;2024-01-10T00:44:40;102567.02;;;-9.71;72.35
59417;BME280;45222;52.458;20.914;2024-01-10T00:48:26;102554.74;;;-9.66;72.32
59417;BME280;45222;52.458;20.914;2024-01-10T00:52:11;102543.58;;;-9.71;72.28
59417;BME280;45222;52.458;20.914;2024-01-10T00:55:56;102546.35;;;-9.83;72.26
59417;BME280;45222;52.458;20.914;2024-01-10T00:59:41;102538.26;;;-9.93;72.32
59417;BME280;45222;52.458;20.914;2024-01-10T01:03:27;102546.07;;;-10.00;72.63
59417;BME280;45222;52.458;20.914;2024-01-10T01:07:12;102535.11;;;-10.01;72.43
59417;BME280;45222;52.458;20.914;2024-01-10T01:10:58;102531.30;;;-10.02;72.70
59417;BME280;45222;52.458;20.914;2024-01-10T01:14:43;102523.45;;;-10.06;72.71
59417;BME280;45222;52.458;20.914;2024-01-10T01:18:29;102518.67;;;-10.10;72.86
59417;BME280;45222;52.458;20.914;2024-01-10T01:22:14;102515.84;;;-10.13;73.04
59417;BME280;45222;52.458;20.914;2024-01-10T01:26:00;102515.16;;;-10.13;72.98
59417;BME280;45222;52.458;20.914;2024-01-10T01:29:46;102512.04;;;-10.09;73.05
59417;BME280;45222;52.458;20.914;2024-01-10T01:33:31;102521.05;;;-10.00;72.87
59417;BME280;45222;52.458;20.914;2024-01-10T01:37:17;102518.57;;;-9.91;72.93
59417;BME280;45222;52.458;20.914;2024-01-10T01:41:03;102509.72;;;-9.85;72.83
59417;BME280;45222;52.458;20.914;2024-01-10T01:44:50;102507.02;;;-9.84;72.71
59417;BME280;45222;52.458;20.914;2024-01-10T01:48:36;102504.96;;;-9.89;73.08
59417;BME280;45222;52.458;20.914;2024-01-10T01:52:21;102503.05;;;-9.97;72.67
59417;BME280;45222;52.458;20.914;2024-01-10T01:56:08;102498.39;;;-10.02;73.11
59417;BME280;45222;52.458;20.914;2024-01-10T01:59:53;102499.05;;;-10.05;73.19
59417;BME280;45222;52.458;20.914;2024-01-10T02:03:39;102498.31;;;-10.06;73.49
59417;BME280;45222;52.458;20.914;2024-01-10T02:07:24;102499.98;;;-10.04;73.40
59417;BME280;45222;52.458;20.914;2024-01-10T02:11:10;102502.61;;;-10.03;73.13
59417;BME280;45222;52.458;20.914;2024-01-10T02:14:55;102498.54;;;-10.07;73.13
59417;BME280;45222;52.458;20.914;2024-01-10T02:18:42;102498.53;;;-10.10;73.64
59417;BME280;45222;52.458;20.914;2024-01-10T02:22:27;102498.48;;;-10.13;73.49
59417;BME280;45222;52.458;20.914;2024-01-10T02:26:12;102502.78;;;-10.16;73.77
59417;BME280;45222;52.458;20.914;2024-01-10T02:29:59;102498.95;;;-10.16;73.68
59417;BME280;45222;52.458;20.914;2024-01-10T02:38:13;102492.66;;;-10.17;73.63
59417;BME280;45222;52.458;20.914;2024-01-10T02:41:58;102483.88;;;-10.18;73.69
59417;BME280;45222;52.458;20.914;2024-01-10T02:45:44;102476.13;;;-10.20;73.76
59417;BME280;45222;52.458;20.914;2024-01-10T02:49:29;102475.35;;;-10.22;73.59
59417;BME280;45222;52.458;20.914;2024-01-10T02:53:14;102468.05;;;-10.22;73.78
59417;BME280;45222;52.458;20.914;2024-01-10T02:56:59;102465.04;;;-10.24;73.78
59417;BME280;45222;52.458;20.914;2024-01-10T03:00:45;102453.98;;;-10.27;73.85
59417;BME280;45222;52.458;20.914;2024-01-10T03:04:30;102460.38;;;-10.29;73.94
59417;BME280;45222;52.458;20.914;2024-01-10T03:08:15;102470.11;;;-10.28;74.17
59417;BME280;45222;52.458;20.914;2024-01-10T03:12:00;102462.61;;;-10.27;74.15
59417;BME280;45222;52.458;20.914;2024-01-10T03:15:46;102457.86;;;-10.26;73.97
59417;BME280;45222;52.458;20.914;2024-01-10T03:19:31;102456.68;;;-10.25;74.00
59417;BME280;45222;52.458;20.914;2024-01-10T03:23:16;102455.52;;;-10.22;73.94
59417;BME280;45222;52.458;20.914;2024-01-10T03:27:02;102461.89;;;-10.15;73.99
59417;BME280;45222;52.458;20.914;2024-01-10T03:30:47;102455.45;;;-10.08;73.89
59417;BME280;45222;52.458;20.914;2024-01-10T03:34:32;102449.90;;;-10.09;73.88
59417;BME280;45222;52.458;20.914;2024-01-10T03:38:17;102452.48;;;-10.11;73.84
59417;BME280;45222;52.458;20.914;2024-01-10T03:42:03;102448.98;;;-10.12;73.83
59417;BME280;45222;52.458;20.914;2024-01-10T03:45:48;102449.42;;;-10.11;73.94
59417;BME280;45222;52.458;20.914;2024-01-10T03:49:33;102450.80;;;-10.01;74.12
59417;BME280;45222;52.458;20.914;2024-01-10T03:53:19;102442.04;;;-9.90;73.82
59417;BME280;45222;52.458;20.914;2024-01-10T03:57:05;102435.66;;;-9.90;73.83
59417;BME280;45222;52.458;20.914;2024-01-10T04:00:50;102433.69;;;-9.92;73.72
59417;BME280;45222;52.458;20.914;2024-01-10T04:04:38;102430.67;;;-9.95;73.75
59417;BME280;45222;52.458;20.914;2024-01-10T04:08:23;102424.13;;;-9.98;73.91
59417;BME280;45222;52.458;20.914;2024-01-10T04:12:09;102422.27;;;-10.00;73.90
59417;BME280;45222;52.458;20.914;2024-01-10T04:15:54;102415.98;;;-10.02;73.69
59417;BME280;45222;52.458;20.914;2024-01-10T04:19:39;102404.98;;;-10.09;73.93
59417;BME280;45222;52.458;20.914;2024-01-10T04:23:24;102400.55;;;-10.13;73.93
59417;BME280;45222;52.458;20.914;2024-01-10T04:27:10;102400.52;;;-10.16;73.96
59417;BME280;45222;52.458;20.914;2024-01-10T04:30:55;102409.04;;;-10.17;74.23
59417;BME280;45222;52.458;20.914;2024-01-10T04:34:40;102411.33;;;-10.12;74.28
59417;BME280;45222;52.458;20.914;2024-01-10T04:38:26;102415.24;;;-10.00;74.31
59417;BME280;45222;52.458;20.914;2024-01-10T04:42:12;102415.82;;;-9.88;74.22
59417;BME280;45222;52.458;20.914;2024-01-10T04:45:57;102410.02;;;-9.83;74.01
59417;BME280;45222;52.458;20.914;2024-01-10T04:49:42;102411.38;;;-9.83;73.89
59417;BME280;45222;52.458;20.914;2024-01-10T04:53:28;102412.30;;;-9.82;73.97
59417;BME280;45222;52.458;20.914;2024-01-10T04:57:13;102421.64;;;-9.74;74.20
59417;BME280;45222;52.458;20.914;2024-01-10T05:00:58;102414.65;;;-9.67;74.03
59417;BME280;45222;52.458;20.914;2024-01-10T05:04:43;102416.02;;;-9.63;73.99
59417;BME280;45222;52.458;20.914;2024-01-10T05:08:29;102416.91;;;-9.59;73.82
59417;BME280;45222;52.458;20.914;2024-01-10T05:12:14;102422.61;;;-9.54;73.97
59417;BME280;45222;52.458;20.914;2024-01-10T05:15:59;102431.50;;;-9.50;74.07
59417;BME280;45222;52.458;20.914;2024-01-10T05:19:44;102427.61;;;-9.48;74.38
59417;BME280;45222;52.458;20.914;2024-01-10T05:23:30;102432.03;;;-9.47;74.57
59417;BME280;45222;52.458;20.914;2024-01-10T05:27:16;102428.70;;;-9.45;74.86
59417;BME280;45222;52.458;20.914;2024-01-10T05:31:01;102421.84;;;-9.39;75.11
59417;BME280;45222;52.458;20.914;2024-01-10T05:34:46;102416.66;;;-9.31;75.29
59417;BME280;45222;52.458;20.914;2024-01-10T05:38:32;102413.54;;;-9.32;74.68
59417;BME280;45222;52.458;20.914;2024-01-10T05:42:18;102415.21;;;-9.35;74.69
59417;BME280;45222;52.458;20.914;2024-01-10T05:46:04;102410.57;;;-9.38;74.91
59417;BME280;45222;52.458;20.914;2024-01-10T05:49:49;102400.75;;;-9.35;75.19
59417;BME280;45222;52.458;20.914;2024-01-10T05:53:34;102392.88;;;-9.34;75.00
59417;BME280;45222;52.458;20.914;2024-01-10T05:57:20;102391.48;;;-9.34;75.17
59417;BME280;45222;52.458;20.914;2024-01-10T06:01:06;102390.23;;;-9.33;75.43
59417;BME280;45222;52.458;20.914;2024-01-10T06:04:54;102390.98;;;-9.26;75.95
59417;BME280;45222;52.458;20.914;2024-01-10T06:08:40;102388.50;;;-9.19;76.11
59417;BME280;45222;52.458;20.914;2024-01-10T06:12:25;102389.29;;;-9.09;76.23
59417;BME280;45222;52.458;20.914;2024-01-10T06:16:10;102385.05;;;-8.98;76.15
59417;BME280;45222;52.458;20.914;2024-01-10T06:19:55;102393.27;;;-8.90;76.57
59417;BME280;45222;52.458;20.914;2024-01-10T06:23:41;102404.47;;;-8.85;76.76
59417;BME280;45222;52.458;20.914;2024-01-10T06:27:26;102402.55;;;-8.80;76.96
59417;BME280;45222;52.458;20.914;2024-01-10T06:31:12;102404.12;;;-8.77;77.18
59417;BME280;45222;52.458;20.914;2024-01-10T06:34:57;102405.05;;;-8.70;77.39
59417;BME280;45222;52.458;20.914;2024-01-10T06:38:43;102406.50;;;-8.63;78.05
59417;BME280;45222;52.458;20.914;2024-01-10T06:42:28;102408.77;;;-8.57;77.83
59417;BME280;45222;52.458;20.914;2024-01-10T06:46:13;102411.95;;;-8.56;77.80
59417;BME280;45222;52.458;20.914;2024-01-10T06:49:58;102417.41;;;-8.54;78.53
59417;BME280;45222;52.458;20.914;2024-01-10T06:53:44;102416.73;;;-8.51;78.14
59417;BME280;45222;52.458;20.914;2024-01-10T06:57:29;102415.85;;;-8.45;78.46
59417;BME280;45222;52.458;20.914;2024-01-10T07:01:15;102416.13;;;-8.41;78.18
59417;BME280;45222;52.458;20.914;2024-01-10T07:05:00;102415.05;;;-8.36;78.60
59417;BME280;45222;52.458;20.914;2024-01-10T07:08:45;102415.37;;;-8.33;78.55
59417;BME280;45222;52.458;20.914;2024-01-10T07:12:31;102414.34;;;-8.30;78.55
59417;BME280;45222;52.458;20.914;2024-01-10T07:16:16;102413.11;;;-8.28;78.74
59417;BME280;45222;52.458;20.914;2024-01-10T07:20:04;102410.16;;;-8.28;79.10
59417;BME280;45222;52.458;20.914;2024-01-10T07:23:50;102403.75;;;-8.29;79.21
59417;BME280;45222;52.458;20.914;2024-01-10T07:27:35;102394.27;;;-8.28;80.17
59417;BME280;45222;52.458;20.914;2024-01-10T07:31:21;102394.69;;;-8.25;79.56
59417;BME280;45222;52.458;20.914;2024-01-10T07:35:09;102397.81;;;-8.19;79.61
59417;BME280;45222;52.458;20.914;2024-01-10T07:38:55;102400.17;;;-8.14;79.95
59417;BME280;45222;52.458;20.914;2024-01-10T07:42:42;102403.20;;;-8.06;80.19
59417;BME280;45222;52.458;20.914;2024-01-10T07:46:28;102404.16;;;-8.02;79.89
59417;BME280;45222;52.458;20.914;2024-01-10T07:50:13;102395.09;;;-7.98;79.80
59417;BME280;45222;52.458;20.914;2024-01-10T07:53:59;102396.00;;;-7.94;80.09
59417;BME280;45222;52.458;20.914;2024-01-10T07:57:45;102398.27;;;-7.88;80.01
59417;BME280;45222;52.458;20.914;2024-01-10T08:01:30;102396.36;;;-7.82;80.11
59417;BME280;45222;52.458;20.914;2024-01-10T08:05:15;102391.67;;;-7.76;80.31
59417;BME280;45222;52.458;20.914;2024-01-10T08:09:01;102391.17;;;-7.73;80.18
59417;BME280;45222;52.458;20.914;2024-01-10T08:12:49;102394.64;;;-7.70;80.00
59417;BME280;45222;52.458;20.914;2024-01-10T08:16:34;102397.64;;;-7.66;80.48
59417;BME280;45222;52.458;20.914;2024-01-10T08:20:20;102402.85;;;-7.60;80.64
59417;BME280;45222;52.458;20.914;2024-01-10T08:24:06;102403.55;;;-7.50;80.55
59417;BME280;45222;52.458;20.914;2024-01-10T08:27:52;102400.19;;;-7.46;80.30
59417;BME280;45222;52.458;20.914;2024-01-10T08:31:38;102401.64;;;-7.41;80.13
59417;BME280;45222;52.458;20.914;2024-01-10T08:35:24;102404.45;;;-7.35;80.56
59417;BME280;45222;52.458;20.914;2024-01-10T08:39:09;102401.96;;;-7.30;80.62
59417;BME280;45222;52.458;20.914;2024-01-10T08:42:55;102415.17;;;-7.25;80.61
59417;BME280;45222;52.458;20.914;2024-01-10T08:46:40;102423.83;;;-7.22;80.65
59417;BME280;45222;52.458;20.914;2024-01-10T08:50:26;102430.52;;;-7.23;81.03
59417;BME280;45222;52.458;20.914;2024-01-10T08:54:11;102427.41;;;-7.23;80.98
59417;BME280;45222;52.458;20.914;2024-01-10T08:58:01;102421.31;;;-7.15;81.01
59417;BME280;45222;52.458;20.914;2024-01-10T09:01:46;102411.71;;;-7.07;80.67
59417;BME280;45222;52.458;20.914;2024-01-10T09:05:32;102413.63;;;-7.04;80.70
59417;BME280;45222;52.458;20.914;2024-01-10T09:09:17;102420.25;;;-7.00;80.82
59417;BME280;45222;52.458;20.914;2024-01-10T09:13:05;102416.06;;;-6.94;80.90
59417;BME280;45222;52.458;20.914;2024-01-10T09:16:50;102417.60;;;-6.88;80.73
59417;BME280;45222;52.458;20.914;2024-01-10T09:20:36;102420.29;;;-6.80;80.87
59417;BME280;45222;52.458;20.914;2024-01-10T09:24:22;102415.99;;;-6.73;80.80
59417;BME280;45222;52.458;20.914;2024-01-10T09:28:08;102417.74;;;-6.64;80.67
59417;BME280;45222;52.458;20.914;2024-01-10T09:31:53;102418.80;;;-6.57;80.71
59417;BME280;45222;52.458;20.914;2024-01-10T09:35:39;102419.09;;;-6.52;80.64
59417;BME280;45222;52.458;20.914;2024-01-10T09:39:24;102415.32;;;-6.44;80.83
59417;BME280;45222;52.458;20.914;2024-01-10T09:43:10;102412.48;;;-6.39;80.62
59417;BME280;45222;52.458;20.914;2024-01-10T09:46:56;102413.00;;;-6.39;80.39
59417;BME280;45222;52.458;20.914;2024-01-10T09:50:41;102404.43;;;-6.37;80.47
59417;BME280;45222;52.458;20.914;2024-01-10T09:54:30;102406.99;;;-6.38;80.54
59417;BME280;45222;52.458;20.914;2024-01-10T09:58:16;102399.64;;;-6.33;80.56
59417;BME280;45222;52.458;20.914;2024-01-10T10:02:04;102396.36;;;-6.33;81.04
59417;BME280;45222;52.458;20.914;2024-01-10T10:05:49;102399.71;;;-6.32;80.94
59417;BME280;45222;52.458;20.914;2024-01-10T10:09:35;102401.77;;;-6.29;81.04
59417;BME280;45222;52.458;20.914;2024-01-10T10:13:27;102394.81;;;-6.26;80.86
59417;BME280;45222;52.458;20.914;2024-01-10T10:17:17;102404.34;;;-6.20;80.94
59417;BME280;45222;52.458;20.914;2024-01-10T10:21:10;102394.16;;;-6.15;81.06
59417;BME280;45222;52.458;20.914;2024-01-10T10:24:55;102393.02;;;-6.14;80.95
59417;BME280;45222;52.458;20.914;2024-01-10T10:28:41;102385.23;;;-6.11;81.06
59417;BME280;45222;52.458;20.914;2024-01-10T10:32:26;102382.58;;;-6.09;80.90
59417;BME280;45222;52.458;20.914;2024-01-10T10:36:14;102381.22;;;-6.08;81.08
59417;BME280;45222;52.458;20.914;2024-01-10T10:39:59;102383.95;;;-6.09;81.08
59417;BME280;45222;52.458;20.914;2024-01-10T10:43:45;102383.96;;;-6.12;81.09
59417;BME280;45222;52.458;20.914;2024-01-10T10:47:36;102381.79;;;-6.10;81.05
59417;BME280;45222;52.458;20.914;2024-01-10T10:51:30;102371.84;;;-6.11;81.26
59417;BME280;45222;52.458;20.914;2024-01-10T10:55:18;102364.95;;;-6.08;81.18
59417;BME280;45222;52.458;20.914;2024-01-10T10:59:04;102358.16;;;-6.01;81.47
59417;BME280;45222;52.458;20.914;2024-01-10T11:02:50;102358.73;;;-5.93;81.31
59417;BME280;45222;52.458;20.914;2024-01-10T11:06:36;102358.10;;;-5.85;81.49
59417;BME280;45222;52.458;20.914;2024-01-10T11:10:25;102352.54;;;-5.78;81.41
59417;BME280;45222;52.458;20.914;2024-01-10T11:14:24;102345.90;;;-5.73;81.30
59417;BME280;45222;52.458;20.914;2024-01-10T11:18:32;102338.01;;;-5.71;81.34
59417;BME280;45222;52.458;20.914;2024-01-10T11:22:37;102329.34;;;-5.74;81.21
59417;BME280;45222;52.458;20.914;2024-01-10T11:26:28;102322.80;;;-5.80;81.06
59417;BME280;45222;52.458;20.914;2024-01-10T11:30:30;102322.15;;;-5.93;80.79
59417;BME280;45222;52.458;20.914;2024-01-10T11:34:24;102314.34;;;-6.05;81.18
59417;BME280;45222;52.458;20.914;2024-01-10T11:38:11;102316.61;;;-6.11;81.35
59417;BME280;45222;52.458;20.914;2024-01-10T11:41:57;102320.08;;;-6.15;81.36
59417;BME280;45222;52.458;20.914;2024-01-10T11:45:52;102317.17;;;-6.17;81.35
59417;BME280;45222;52.458;20.914;2024-01-10T11:49:37;102316.56;;;-6.19;81.63
59417;BME280;45222;52.458;20.914;2024-01-10T11:53:40;102321.08;;;-6.19;81.64
59417;BME280;45222;52.458;20.914;2024-01-10T11:57:28;102325.52;;;-6.20;81.82
59417;BME280;45222;52.458;20.914;2024-01-10T12:01:16;102324.70;;;-6.19;81.88
59417;BME280;45222;52.458;20.914;2024-01-10T12:05:02;102323.91;;;-6.18;81.88
59417;BME280;45222;52.458;20.914;2024-01-10T12:08:48;102331.59;;;-6.23;81.86
59417;BME280;45222;52.458;20.914;2024-01-10T12:12:34;102325.35;;;-6.27;81.77
59417;BME280;45222;52.458;20.914;2024-01-10T12:16:20;102314.52;;;-6.22;81.96
59417;BME280;45222;52.458;20.914;2024-01-10T12:20:09;102315.33;;;-6.16;82.32
59417;BME280;45222;52.458;20.914;2024-01-10T12:23:55;102311.02;;;-6.12;82.21
59417;BME280;45222;52.458;20.914;2024-01-10T12:27:40;102307.02;;;-6.09;82.25
59417;BME280;45222;52.458;20.914;2024-01-10T12:31:27;102300.12;;;-6.09;82.40
59417;BME280;45222;52.458;20.914;2024-01-10T12:35:13;102299.30;;;-6.11;82.40
59417;BME280;45222;52.458;20.914;2024-01-10T12:38:58;102290.97;;;-6.11;82.24
59417;BME280;45222;52.458;20.914;2024-01-10T12:42:44;102280.91;;;-6.11;82.22
59417;BME280;45222;52.458;20.914;2024-01-10T12:46:30;102283.17;;;-6.08;82.16
59417;BME280;45222;52.458;20.914;2024-01-10T12:50:15;102287.19;;;-6.00;82.25
59417;BME280;45222;52.458;20.914;2024-01-10T12:54:02;102283.89;;;-5.93;82.35
59417;BME280;45222;52.458;20.914;2024-01-10T12:57:48;102280.52;;;-5.91;82.31
59417;BME280;45222;52.458;20.914;2024-01-10T13:01:34;102275.52;;;-5.94;82.52
59417;BME280;45222;52.458;20.914;2024-01-10T13:05:19;102275.86;;;-5.98;82.53
59417;BME280;45222;52.458;20.914;2024-01-10T13:09:05;102265.36;;;-6.00;82.40
59417;BME280;45222;52.458;20.914;2024-01-10T13:12:51;102268.30;;;-6.04;82.32
59417;BME280;45222;52.458;20.914;2024-01-10T13:16:36;102268.34;;;-6.07;82.72
59417;BME280;45222;52.458;20.914;2024-01-10T13:20:22;102264.10;;;-6.05;82.74
59417;BME280;45222;52.458;20.914;2024-01-10T13:24:08;102265.27;;;-6.02;82.83
59417;BME280;45222;52.458;20.914;2024-01-10T13:27:54;102258.18;;;-6.01;83.07
59417;BME280;45222;52.458;20.914;2024-01-10T13:31:39;102254.06;;;-6.00;83.17
59417;BME280;45222;52.458;20.914;2024-01-10T13:35:25;102252.83;;;-5.97;83.35
59417;BME280;45222;52.458;20.914;2024-01-10T13:39:10;102254.17;;;-6.02;83.63
59417;BME280;45222;52.458;20.914;2024-01-10T13:42:58;102255.55;;;-6.10;83.57
59417;BME280;45222;52.458;20.914;2024-01-10T13:46:46;102254.53;;;-6.16;83.77
59417;BME280;45222;52.458;20.914;2024-01-10T13:50:34;102258.56;;;-6.23;83.62
59417;BME280;45222;52.458;20.914;2024-01-10T13:54:19;102260.45;;;-6.26;83.73
59417;BME280;45222;52.458;20.914;2024-01-10T13:58:06;102253.55;;;-6.29;83.84
59417;BME280;45222;52.458;20.914;2024-01-10T14:01:52;102250.56;;;-6.33;83.92
59417;BME280;45222;52.458;20.914;2024-01-10T14:05:37;102242.57;;;-6.30;83.69
59417;BME280;45222;52.458;20.914;2024-01-10T14:09:22;102231.98;;;-6.24;83.93
59417;BME280;45222;52.458;20.914;2024-01-10T14:13:08;102227.30;;;-6.17;84.18
59417;BME280;45222;52.458;20.914;2024-01-10T14:16:53;102217.52;;;-6.11;84.41
59417;BME280;45222;52.458;20.914;2024-01-10T14:20:38;102207.88;;;-6.07;84.54
59417;BME280;45222;52.458;20.914;2024-01-10T14:24:23;102200.67;;;-6.06;84.64
59417;BME280;45222;52.458;20.914;2024-01-10T14:28:10;102196.76;;;-6.08;84.75
59417;BME280;45222;52.458;20.914;2024-01-10T14:31:55;102198.84;;;-6.11;84.81
59417;BME280;45222;52.458;20.914;2024-01-10T14:35:41;102197.99;;;-6.14;84.87
59417;BME280;45222;52.458;20.914;2024-01-10T14:39:26;102206.02;;;-6.17;84.83
59417;BME280;45222;52.458;20.914;2024-01-10T14:43:11;102204.20;;;-6.18;84.82
59417;BME280;45222;52.458;20.914;2024-01-10T14:46:57;102194.89;;;-6.17;84.83
59417;BME280;45222;52.458;20.914;2024-01-10T14:50:43;102184.84;;;-6.14;84.76
59417;BME280;45222;52.458;20.914;2024-01-10T14:54:28;102173.96;;;-6.10;85.11
59417;BME280;45222;52.458;20.914;2024-01-10T14:58:13;102162.02;;;-6.07;85.17
59417;BME280;45222;52.458;20.914;2024-01-10T15:01:59;102160.45;;;-6.07;85.28
59417;BME280;45222;52.458;20.914;2024-01-10T15:05:44;102164.02;;;-6.08;85.39
59417;BME280;45222;52.458;20.914;2024-01-10T15:09:29;102164.38;;;-6.11;85.66
59417;BME280;45222;52.458;20.914;2024-01-10T15:13:15;102154.65;;;-6.15;85.59
59417;BME280;45222;52.458;20.914;2024-01-10T15:17:03;102156.29;;;-6.14;85.45
59417;BME280;45222;52.458;20.914;2024-01-10T15:20:50;102164.14;;;-6.12;85.30
59417;BME280;45222;52.458;20.914;2024-01-10T15:24:36;102167.65;;;-6.08;85.66
59417;BME280;45222;52.458;20.914;2024-01-10T15:28:23;102162.05;;;-6.01;85.81
59417;BME280;45222;52.458;20.914;2024-01-10T15:32:08;102177.56;;;-5.96;85.71
59417;BME280;45222;52.458;20.914;2024-01-10T15:35:53;102182.34;;;-5.89;85.97
59417;BME280;45222;52.458;20.914;2024-01-10T15:39:41;102178.98;;;-5.88;86.02
59417;BME280;45222;52.458;20.914;2024-01-10T15:43:27;102175.06;;;-5.86;85.98
59417;BME280;45222;52.458;20.914;2024-01-10T15:47:12;102171.78;;;-5.86;85.78
59417;BME280;45222;52.458;20.914;2024-01-10T15:50:57;102162.14;;;-5.88;85.74
59417;BME280;45222;52.458;20.914;2024-01-10T15:54:43;102158.41;;;-5.90;85.89
59417;BME280;45222;52.458;20.914;2024-01-10T15:58:29;102150.98;;;-5.90;85.38
59417;BME280;45222;52.458;20.914;2024-01-10T16:02:14;102147.67;;;-5.90;85.66
59417;BME280;45222;52.458;20.914;2024-01-10T16:06:02;102148.51;;;-5.84;86.06
59417;BME280;45222;52.458;20.914;2024-01-10T16:09:47;102149.06;;;-5.75;86.03
59417;BME280;45222;52.458;20.914;2024-01-10T16:13:32;102146.89;;;-5.66;85.88
59417;BME280;45222;52.458;20.914;2024-01-10T16:17:18;102143.02;;;-5.60;85.96
59417;BME280;45222;52.458;20.914;2024-01-10T16:21:04;102136.85;;;-5.55;86.21
59417;BME280;45222;52.458;20.914;2024-01-10T16:24:50;102125.38;;;-5.52;86.30
59417;BME280;45222;52.458;20.914;2024-01-10T16:28:37;102113.52;;;-5.49;86.10
59417;BME280;45222;52.458;20.914;2024-01-10T16:32:22;102105.95;;;-5.52;85.79
59417;BME280;45222;52.458;20.914;2024-01-10T16:36:08;102103.79;;;-5.53;86.07
59417;BME280;45222;52.458;20.914;2024-01-10T16:39:54;102095.89;;;-5.55;86.09
59417;BME280;45222;52.458;20.914;2024-01-10T16:43:39;102097.17;;;-5.58;86.19
59417;BME280;45222;52.458;20.914;2024-01-10T16:47:24;102093.80;;;-5.56;86.42
59417;BME280;45222;52.458;20.914;2024-01-10T16:51:10;102083.59;;;-5.52;86.17
59417;BME280;45222;52.458;20.914;2024-01-10T16:54:56;102079.59;;;-5.44;86.16
59417;BME280;45222;52.458;20.914;2024-01-10T16:58:44;102073.46;;;-5.37;86.37
59417;BME280;45222;52.458;20.914;2024-01-10T17:02:29;102069.23;;;-5.31;86.65
59417;BME280;45222;52.458;20.914;2024-01-10T17:06:15;102066.61;;;-5.28;86.59
59417;BME280;45222;52.458;20.914;2024-01-10T17:10:00;102064.95;;;-5.26;86.46
59417;BME280;45222;52.458;20.914;2024-01-10T17:13:46;102058.00;;;-5.26;86.45
59417;BME280;45222;52.458;20.914;2024-01-10T17:17:31;102044.98;;;-5.30;86.39
59417;BME280;45222;52.458;20.914;2024-01-10T17:21:17;102042.56;;;-5.34;86.65
59417;BME280;45222;52.458;20.914;2024-01-10T17:25:03;102045.08;;;-5.32;86.69
59417;BME280;45222;52.458;20.914;2024-01-10T17:28:48;102045.23;;;-5.29;86.71
59417;BME280;45222;52.458;20.914;2024-01-10T17:32:33;102044.03;;;-5.25;86.88
59417;BME280;45222;52.458;20.914;2024-01-10T17:36:20;102037.75;;;-5.21;86.92
59417;BME280;45222;52.458;20.914;2024-01-10T17:40:08;102024.73;;;-5.21;87.24
59417;BME280;45222;52.458;20.914;2024-01-10T17:43:54;102026.81;;;-5.21;87.45
59417;BME280;45222;52.458;20.914;2024-01-10T17:47:40;102017.95;;;-5.21;87.40
59417;BME280;45222;52.458;20.914;2024-01-10T17:51:25;102020.40;;;-5.21;87.29
59417;BME280;45222;52.458;20.914;2024-01-10T17:55:12;102020.36;;;-5.22;87.23
59417;BME280;45222;52.458;20.914;2024-01-10T17:58:57;102020.63;;;-5.20;87.01
59417;BME280;45222;52.458;20.914;2024-01-10T18:02:42;102020.04;;;-5.17;87.32
59417;BME280;45222;52.458;20.914;2024-01-10T18:06:28;102009.61;;;-5.14;87.86
59417;BME280;45222;52.458;20.914;2024-01-10T18:10:15;102001.16;;;-5.08;87.31
59417;BME280;45222;52.458;20.914;2024-01-10T18:14:00;102002.91;;;-5.04;87.08
59417;BME280;45222;52.458;20.914;2024-01-10T18:17:46;102004.77;;;-5.01;87.44
59417;BME280;45222;52.458;20.914;2024-01-10T18:21:31;101996.21;;;-4.98;87.41
59417;BME280;45222;52.458;20.914;2024-01-10T18:25:17;101987.04;;;-4.98;87.44
59417;BME280;45222;52.458;20.914;2024-01-10T18:29:02;101989.95;;;-5.02;87.44
59417;BME280;45222;52.458;20.914;2024-01-10T18:32:48;101993.27;;;-5.10;87.89
59417;BME280;45222;52.458;20.914;2024-01-10T18:36:33;102003.67;;;-5.15;88.17
59417;BME280;45222;52.458;20.914;2024-01-10T18:40:21;102006.53;;;-5.17;88.18
59417;BME280;45222;52.458;20.914;2024-01-10T18:44:06;101996.09;;;-5.09;87.96
59417;BME280;45222;52.458;20.914;2024-01-10T18:47:52;101988.29;;;-5.05;88.29
59417;BME280;45222;52.458;20.914;2024-01-10T18:51:37;101990.58;;;-5.04;88.34
59417;BME280;45222;52.458;20.914;2024-01-10T18:55:23;101991.13;;;-5.03;88.25
59417;BME280;45222;52.458;20.914;2024-01-10T18:59:08;101985.10;;;-5.02;88.24
59417;BME280;45222;52.458;20.914;2024-01-10T19:02:54;101982.83;;;-5.03;88.02
59417;BME280;45222;52.458;20.914;2024-01-10T19:06:42;101980.61;;;-5.06;88.12
59417;BME280;45222;52.458;20.914;2024-01-10T19:10:27;101974.13;;;-5.08;87.65
59417;BME280;45222;52.458;20.914;2024-01-10T19:14:13;101964.20;;;-5.04;87.91
59417;BME280;45222;52.458;20.914;2024-01-10T19:17:58;101963.25;;;-5.02;87.73
59417;BME280;45222;52.458;20.914;2024-01-10T19:21:47;101960.35;;;-4.97;87.95
59417;BME280;45222;52.458;20.914;2024-01-10T19:25:32;101960.94;;;-4.91;87.85
59417;BME280;45222;52.458;20.914;2024-01-10T19:29:18;101956.54;;;-4.92;88.21